sensor_id;sensor_type;location;lat;lon;timestamp;P1;durP1;ratioP1;P2;durP2;ratioP2
18435;SDS011;9346;52.006;4.720;2022-08-21T00:00:58;3.20;;;2.57;;
18435;SDS011;9346;52.006;4.720;2022-08-21T00:03:29;4.00;;;2.67;;
18435;SDS011;9346;52.006;4.720;2022-08-21T00:05:56;8.77;;;2.53;;
18435;SDS011;9346;52.006;4.720;2022-08-21T00:08:23;3.40;;;2.80;;
18435;SDS011;9346;52.006;4.720;2022-08-21T00:10:50;2.90;;;2.30;;
18435;SDS011;9346;52.006;4.720;2022-08-21T00:13:18;4.40;;;3.07;;
18435;SDS011;9346;52.006;4.720;2022-08-21T00:15:46;7.17;;;3.30;;
18435;SDS011;9346;52.006;4.720;2022-08-21T00:18:15;4.90;;;2.97;;
18435;SDS011;9346;52.006;4.720;2022-08-21T00:20:45;4.83;;;3.37;;
18435;SDS011;9346;52.006;4.720;2022-08-21T00:23:13;4.57;;;2.50;;
18435;SDS011;9346;52.006;4.720;2022-08-21T00:25:41;3.43;;;2.40;;
18435;SDS011;9346;52.006;4.720;2022-08-21T00:28:09;4.50;;;2.77;;
18435;SDS011;9346;52.006;4.720;2022-08-21T00:30:36;6.10;;;2.83;;
18435;SDS011;9346;52.006;4.720;2022-08-21T00:33:04;3.87;;;2.63;;
18435;SDS011;9346;52.006;4.720;2022-08-21T00:35:33;3.63;;;2.70;;
18435;SDS011;9346;52.006;4.720;2022-08-21T00:38:03;4.23;;;2.87;;
18435;SDS011;9346;52.006;4.720;2022-08-21T00:40:33;3.60;;;3.13;;
18435;SDS011;9346;52.006;4.720;2022-08-21T00:43:03;4.07;;;3.13;;
18435;SDS011;9346;52.006;4.720;2022-08-21T00:45:32;6.43;;;3.30;;
18435;SDS011;9346;52.006;4.720;2022-08-21T00:47:59;4.33;;;2.63;;
18435;SDS011;9346;52.006;4.720;2022-08-21T00:50:28;2.73;;;2.20;;
18435;SDS011;9346;52.006;4.720;2022-08-21T00:52:59;7.43;;;3.03;;
18435;SDS011;9346;52.006;4.720;2022-08-21T00:55:31;3.37;;;2.87;;
18435;SDS011;9346;52.006;4.720;2022-08-21T00:58:03;2.93;;;2.70;;
18435;SDS011;9346;52.006;4.720;2022-08-21T01:00:36;5.03;;;3.10;;
18435;SDS011;9346;52.006;4.720;2022-08-21T01:03:06;4.37;;;2.80;;
18435;SDS011;9346;52.006;4.720;2022-08-21T01:05:35;3.20;;;2.50;;
18435;SDS011;9346;52.006;4.720;2022-08-21T01:08:04;2.50;;;2.00;;
18435;SDS011;9346;52.006;4.720;2022-08-21T01:10:34;5.70;;;2.93;;
18435;SDS011;9346;52.006;4.720;2022-08-21T01:13:02;4.43;;;2.83;;
18435;SDS011;9346;52.006;4.720;2022-08-21T01:15:33;4.43;;;2.80;;
18435;SDS011;9346;52.006;4.720;2022-08-21T01:18:02;4.43;;;2.60;;
18435;SDS011;9346;52.006;4.720;2022-08-21T01:20:30;4.80;;;2.70;;
18435;SDS011;9346;52.006;4.720;2022-08-21T01:22:59;4.37;;;2.47;;
18435;SDS011;9346;52.006;4.720;2022-08-21T01:25:26;3.43;;;2.33;;
18435;SDS011;9346;52.006;4.720;2022-08-21T01:27:52;4.00;;;2.43;;
18435;SDS011;9346;52.006;4.720;2022-08-21T01:30:21;4.83;;;2.70;;
18435;SDS011;9346;52.006;4.720;2022-08-21T01:32:50;3.50;;;2.63;;
18435;SDS011;9346;52.006;4.720;2022-08-21T01:35:19;3.83;;;2.40;;
18435;SDS011;9346;52.006;4.720;2022-08-21T01:37:49;5.00;;;3.13;;
18435;SDS011;9346;52.006;4.720;2022-08-21T01:40:18;7.30;;;3.33;;
18435;SDS011;9346;52.006;4.720;2022-08-21T01:42:46;5.60;;;3.23;;
18435;SDS011;9346;52.006;4.720;2022-08-21T01:45:14;3.07;;;2.30;;
18435;SDS011;9346;52.006;4.720;2022-08-21T01:47:41;3.23;;;2.13;;
18435;SDS011;9346;52.006;4.720;2022-08-21T01:50:09;2.43;;;2.23;;
18435;SDS011;9346;52.006;4.720;2022-08-21T01:52:38;3.37;;;2.67;;
18435;SDS011;9346;52.006;4.720;2022-08-21T01:55:09;4.13;;;2.80;;
18435;SDS011;9346;52.006;4.720;2022-08-21T01:57:39;4.90;;;3.10;;
18435;SDS011;9346;52.006;4.720;2022-08-21T02:00:08;4.80;;;2.90;;
18435;SDS011;9346;52.006;4.720;2022-08-21T02:02:37;2.93;;;2.30;;
18435;SDS011;9346;52.006;4.720;2022-08-21T02:05:05;4.40;;;2.90;;
18435;SDS011;9346;52.006;4.720;2022-08-21T02:07:35;3.87;;;2.90;;
18435;SDS011;9346;52.006;4.720;2022-08-21T02:10:05;4.10;;;2.97;;
18435;SDS011;9346;52.006;4.720;2022-08-21T02:12:34;3.93;;;2.60;;
18435;SDS011;9346;52.006;4.720;2022-08-21T02:15:03;3.67;;;2.63;;
18435;SDS011;9346;52.006;4.720;2022-08-21T02:17:37;3.03;;;2.13;;
18435;SDS011;9346;52.006;4.720;2022-08-21T02:20:05;4.50;;;2.97;;
18435;SDS011;9346;52.006;4.720;2022-08-21T02:22:34;3.90;;;2.43;;
18435;SDS011;9346;52.006;4.720;2022-08-21T02:25:01;6.10;;;3.13;;
18435;SDS011;9346;52.006;4.720;2022-08-21T02:27:28;6.17;;;2.77;;
18435;SDS011;9346;52.006;4.720;2022-08-21T02:29:56;5.50;;;2.70;;
18435;SDS011;9346;52.006;4.720;2022-08-21T02:32:25;4.50;;;2.53;;
18435;SDS011;9346;52.006;4.720;2022-08-21T02:34:52;3.10;;;2.80;;
18435;SDS011;9346;52.006;4.720;2022-08-21T02:37:20;5.73;;;2.83;;
18435;SDS011;9346;52.006;4.720;2022-08-21T02:39:47;6.23;;;2.57;;
18435;SDS011;9346;52.006;4.720;2022-08-21T02:42:14;8.50;;;3.53;;
18435;SDS011;9346;52.006;4.720;2022-08-21T02:44:41;5.90;;;2.70;;
18435;SDS011;9346;52.006;4.720;2022-08-21T02:47:08;7.07;;;3.10;;
18435;SDS011;9346;52.006;4.720;2022-08-21T02:49:38;4.57;;;2.63;;
18435;SDS011;9346;52.006;4.720;2022-08-21T02:52:05;3.77;;;2.87;;
18435;SDS011;9346;52.006;4.720;2022-08-21T02:54:32;3.10;;;2.60;;
18435;SDS011;9346;52.006;4.720;2022-08-21T02:56:58;5.83;;;2.60;;
18435;SDS011;9346;52.006;4.720;2022-08-21T02:59:25;4.37;;;2.50;;
18435;SDS011;9346;52.006;4.720;2022-08-21T03:01:52;4.73;;;2.70;;
18435;SDS011;9346;52.006;4.720;2022-08-21T03:04:20;5.87;;;2.50;;
18435;SDS011;9346;52.006;4.720;2022-08-21T03:06:49;5.33;;;2.80;;
18435;SDS011;9346;52.006;4.720;2022-08-21T03:09:16;7.83;;;2.83;;
18435;SDS011;9346;52.006;4.720;2022-08-21T03:11:43;4.67;;;2.40;;
18435;SDS011;9346;52.006;4.720;2022-08-21T03:14:10;3.43;;;2.50;;
18435;SDS011;9346;52.006;4.720;2022-08-21T03:16:37;3.10;;;2.23;;
18435;SDS011;9346;52.006;4.720;2022-08-21T03:19:04;4.80;;;2.70;;
18435;SDS011;9346;52.006;4.720;2022-08-21T03:21:31;4.90;;;2.80;;
18435;SDS011;9346;52.006;4.720;2022-08-21T03:23:59;4.00;;;2.30;;
18435;SDS011;9346;52.006;4.720;2022-08-21T03:26:26;4.80;;;2.20;;
18435;SDS011;9346;52.006;4.720;2022-08-21T03:28:53;5.87;;;2.50;;
18435;SDS011;9346;52.006;4.720;2022-08-21T03:31:22;2.80;;;2.23;;
18435;SDS011;9346;52.006;4.720;2022-08-21T03:33:53;3.67;;;2.47;;
18435;SDS011;9346;52.006;4.720;2022-08-21T03:36:20;4.17;;;2.53;;
18435;SDS011;9346;52.006;4.720;2022-08-21T03:38:47;6.77;;;2.67;;
18435;SDS011;9346;52.006;4.720;2022-08-21T03:41:15;4.87;;;2.73;;
18435;SDS011;9346;52.006;4.720;2022-08-21T03:43:42;3.43;;;2.43;;
18435;SDS011;9346;52.006;4.720;2022-08-21T03:46:09;4.23;;;2.63;;
18435;SDS011;9346;52.006;4.720;2022-08-21T03:48:36;8.53;;;2.73;;
18435;SDS011;9346;52.006;4.720;2022-08-21T03:51:04;4.73;;;2.60;;
18435;SDS011;9346;52.006;4.720;2022-08-21T03:53:32;3.97;;;2.73;;
18435;SDS011;9346;52.006;4.720;2022-08-21T03:55:59;4.30;;;2.50;;
18435;SDS011;9346;52.006;4.720;2022-08-21T03:58:28;6.00;;;2.80;;
18435;SDS011;9346;52.006;4.720;2022-08-21T04:00:56;3.73;;;2.30;;
18435;SDS011;9346;52.006;4.720;2022-08-21T04:03:25;5.63;;;2.90;;
18435;SDS011;9346;52.006;4.720;2022-08-21T04:05:53;3.27;;;2.20;;
18435;SDS011;9346;52.006;4.720;2022-08-21T04:08:20;7.87;;;3.03;;
18435;SDS011;9346;52.006;4.720;2022-08-21T04:10:48;2.63;;;2.43;;
18435;SDS011;9346;52.006;4.720;2022-08-21T04:13:17;3.97;;;2.67;;
18435;SDS011;9346;52.006;4.720;2022-08-21T04:15:46;4.33;;;2.03;;
18435;SDS011;9346;52.006;4.720;2022-08-21T04:18:14;5.20;;;2.37;;
18435;SDS011;9346;52.006;4.720;2022-08-21T04:20:41;3.40;;;2.10;;
18435;SDS011;9346;52.006;4.720;2022-08-21T04:23:09;6.10;;;2.07;;
18435;SDS011;9346;52.006;4.720;2022-08-21T04:25:36;4.57;;;2.20;;
18435;SDS011;9346;52.006;4.720;2022-08-21T04:28:03;2.90;;;2.13;;
18435;SDS011;9346;52.006;4.720;2022-08-21T04:30:30;3.93;;;2.70;;
18435;SDS011;9346;52.006;4.720;2022-08-21T04:32:59;4.87;;;1.93;;
18435;SDS011;9346;52.006;4.720;2022-08-21T04:35:27;4.03;;;2.00;;
18435;SDS011;9346;52.006;4.720;2022-08-21T04:37:55;6.53;;;2.27;;
18435;SDS011;9346;52.006;4.720;2022-08-21T04:40:23;2.77;;;2.17;;
18435;SDS011;9346;52.006;4.720;2022-08-21T04:42:52;4.97;;;2.07;;
18435;SDS011;9346;52.006;4.720;2022-08-21T04:45:22;5.03;;;2.60;;
18435;SDS011;9346;52.006;4.720;2022-08-21T04:47:51;5.30;;;2.70;;
18435;SDS011;9346;52.006;4.720;2022-08-21T04:50:22;3.53;;;2.27;;
18435;SDS011;9346;52.006;4.720;2022-08-21T04:52:53;2.97;;;1.93;;
18435;SDS011;9346;52.006;4.720;2022-08-21T04:55:20;3.83;;;1.73;;
18435;SDS011;9346;52.006;4.720;2022-08-21T04:57:49;3.17;;;1.93;;
18435;SDS011;9346;52.006;4.720;2022-08-21T05:00:18;3.83;;;2.00;;
18435;SDS011;9346;52.006;4.720;2022-08-21T05:02:46;2.83;;;2.20;;
18435;SDS011;9346;52.006;4.720;2022-08-21T05:05:14;7.47;;;2.70;;
18435;SDS011;9346;52.006;4.720;2022-08-21T05:07:43;2.67;;;1.73;;
18435;SDS011;9346;52.006;4.720;2022-08-21T05:10:12;3.07;;;1.77;;
18435;SDS011;9346;52.006;4.720;2022-08-21T05:12:40;2.73;;;1.83;;
18435;SDS011;9346;52.006;4.720;2022-08-21T05:15:08;7.77;;;2.53;;
18435;SDS011;9346;52.006;4.720;2022-08-21T05:17:36;3.07;;;2.70;;
18435;SDS011;9346;52.006;4.720;2022-08-21T05:20:04;2.97;;;1.80;;
18435;SDS011;9346;52.006;4.720;2022-08-21T05:22:32;5.97;;;2.97;;
18435;SDS011;9346;52.006;4.720;2022-08-21T05:25:00;4.03;;;2.03;;
18435;SDS011;9346;52.006;4.720;2022-08-21T05:27:27;5.43;;;2.90;;
18435;SDS011;9346;52.006;4.720;2022-08-21T05:29:55;10.83;;;2.90;;
18435;SDS011;9346;52.006;4.720;2022-08-21T05:32:22;5.73;;;2.97;;
18435;SDS011;9346;52.006;4.720;2022-08-21T05:34:49;5.33;;;3.23;;
18435;SDS011;9346;52.006;4.720;2022-08-21T05:37:16;9.07;;;3.33;;
18435;SDS011;9346;52.006;4.720;2022-08-21T05:39:43;4.70;;;3.10;;
18435;SDS011;9346;52.006;4.720;2022-08-21T05:42:11;6.53;;;2.90;;
18435;SDS011;9346;52.006;4.720;2022-08-21T05:44:38;4.53;;;3.13;;
18435;SDS011;9346;52.006;4.720;2022-08-21T05:47:06;4.90;;;3.23;;
18435;SDS011;9346;52.006;4.720;2022-08-21T05:49:34;4.80;;;3.10;;
18435;SDS011;9346;52.006;4.720;2022-08-21T05:52:01;10.27;;;3.70;;
18435;SDS011;9346;52.006;4.720;2022-08-21T05:54:29;15.30;;;4.47;;
18435;SDS011;9346;52.006;4.720;2022-08-21T05:56:56;11.07;;;3.67;;
18435;SDS011;9346;52.006;4.720;2022-08-21T05:59:25;4.80;;;3.13;;
18435;SDS011;9346;52.006;4.720;2022-08-21T06:01:52;9.57;;;3.83;;
18435;SDS011;9346;52.006;4.720;2022-08-21T06:04:19;12.03;;;3.67;;
18435;SDS011;9346;52.006;4.720;2022-08-21T06:06:46;9.70;;;3.60;;
18435;SDS011;9346;52.006;4.720;2022-08-21T06:09:13;6.93;;;3.40;;
18435;SDS011;9346;52.006;4.720;2022-08-21T06:11:41;7.23;;;3.30;;
18435;SDS011;9346;52.006;4.720;2022-08-21T06:14:08;9.33;;;3.63;;
18435;SDS011;9346;52.006;4.720;2022-08-21T06:16:36;6.43;;;2.70;;
18435;SDS011;9346;52.006;4.720;2022-08-21T06:19:03;8.53;;;3.53;;
18435;SDS011;9346;52.006;4.720;2022-08-21T06:21:31;6.17;;;3.30;;
18435;SDS011;9346;52.006;4.720;2022-08-21T06:23:57;12.73;;;3.53;;
18435;SDS011;9346;52.006;4.720;2022-08-21T06:26:24;7.93;;;3.30;;
18435;SDS011;9346;52.006;4.720;2022-08-21T06:28:51;5.03;;;3.27;;
18435;SDS011;9346;52.006;4.720;2022-08-21T06:31:19;6.27;;;3.33;;
18435;SDS011;9346;52.006;4.720;2022-08-21T06:33:49;5.43;;;2.73;;
18435;SDS011;9346;52.006;4.720;2022-08-21T06:36:17;6.77;;;3.13;;
18435;SDS011;9346;52.006;4.720;2022-08-21T06:38:44;7.53;;;3.67;;
18435;SDS011;9346;52.006;4.720;2022-08-21T06:41:11;6.37;;;4.07;;
18435;SDS011;9346;52.006;4.720;2022-08-21T06:43:38;5.20;;;3.40;;
18435;SDS011;9346;52.006;4.720;2022-08-21T06:46:05;6.60;;;3.37;;
18435;SDS011;9346;52.006;4.720;2022-08-21T06:48:32;4.80;;;3.30;;
18435;SDS011;9346;52.006;4.720;2022-08-21T06:51:01;8.07;;;3.97;;
18435;SDS011;9346;52.006;4.720;2022-08-21T06:53:29;5.97;;;3.27;;
18435;SDS011;9346;52.006;4.720;2022-08-21T06:55:56;6.47;;;3.53;;
18435;SDS011;9346;52.006;4.720;2022-08-21T06:58:22;4.73;;;2.77;;
18435;SDS011;9346;52.006;4.720;2022-08-21T07:00:49;8.43;;;3.20;;
18435;SDS011;9346;52.006;4.720;2022-08-21T07:03:21;7.30;;;2.80;;
18435;SDS011;9346;52.006;4.720;2022-08-21T07:05:49;7.73;;;3.50;;
18435;SDS011;9346;52.006;4.720;2022-08-21T07:08:19;8.20;;;3.77;;
18435;SDS011;9346;52.006;4.720;2022-08-21T07:10:46;4.07;;;2.93;;
18435;SDS011;9346;52.006;4.720;2022-08-21T07:13:14;5.63;;;3.40;;
18435;SDS011;9346;52.006;4.720;2022-08-21T07:15:41;5.40;;;2.87;;
18435;SDS011;9346;52.006;4.720;2022-08-21T07:18:09;7.73;;;2.87;;
18435;SDS011;9346;52.006;4.720;2022-08-21T07:20:37;8.17;;;3.40;;
18435;SDS011;9346;52.006;4.720;2022-08-21T07:23:05;6.33;;;2.53;;
18435;SDS011;9346;52.006;4.720;2022-08-21T07:25:37;7.60;;;3.47;;
18435;SDS011;9346;52.006;4.720;2022-08-21T07:28:04;9.40;;;3.57;;
18435;SDS011;9346;52.006;4.720;2022-08-21T07:30:31;5.03;;;3.20;;
18435;SDS011;9346;52.006;4.720;2022-08-21T07:32:58;4.63;;;3.00;;
18435;SDS011;9346;52.006;4.720;2022-08-21T07:35:25;7.23;;;2.83;;
18435;SDS011;9346;52.006;4.720;2022-08-21T07:37:53;9.27;;;2.77;;
18435;SDS011;9346;52.006;4.720;2022-08-21T07:40:20;6.87;;;2.83;;
18435;SDS011;9346;52.006;4.720;2022-08-21T07:42:49;6.37;;;3.00;;
18435;SDS011;9346;52.006;4.720;2022-08-21T07:45:17;6.83;;;3.07;;
18435;SDS011;9346;52.006;4.720;2022-08-21T07:47:44;5.90;;;2.70;;
18435;SDS011;9346;52.006;4.720;2022-08-21T07:50:12;4.50;;;2.40;;
18435;SDS011;9346;52.006;4.720;2022-08-21T07:52:39;9.47;;;2.80;;
18435;SDS011;9346;52.006;4.720;2022-08-21T07:55:08;10.90;;;3.33;;
18435;SDS011;9346;52.006;4.720;2022-08-21T07:57:37;3.70;;;1.93;;
18435;SDS011;9346;52.006;4.720;2022-08-21T08:00:07;6.70;;;2.67;;
18435;SDS011;9346;52.006;4.720;2022-08-21T08:02:37;5.00;;;2.20;;
18435;SDS011;9346;52.006;4.720;2022-08-21T08:05:05;4.83;;;2.27;;
18435;SDS011;9346;52.006;4.720;2022-08-21T08:07:34;3.33;;;1.90;;
18435;SDS011;9346;52.006;4.720;2022-08-21T08:10:02;3.93;;;2.33;;
18435;SDS011;9346;52.006;4.720;2022-08-21T08:12:31;6.57;;;2.23;;
18435;SDS011;9346;52.006;4.720;2022-08-21T08:14:59;3.50;;;2.17;;
18435;SDS011;9346;52.006;4.720;2022-08-21T08:17:28;5.83;;;2.20;;
18435;SDS011;9346;52.006;4.720;2022-08-21T08:19:57;2.83;;;1.93;;
18435;SDS011;9346;52.006;4.720;2022-08-21T08:22:24;5.90;;;1.73;;
18435;SDS011;9346;52.006;4.720;2022-08-21T08:24:51;3.10;;;1.93;;
18435;SDS011;9346;52.006;4.720;2022-08-21T08:27:19;3.60;;;1.80;;
18435;SDS011;9346;52.006;4.720;2022-08-21T08:29:47;8.77;;;2.30;;
18435;SDS011;9346;52.006;4.720;2022-08-21T08:32:14;4.47;;;1.83;;
18435;SDS011;9346;52.006;4.720;2022-08-21T08:34:43;3.63;;;2.30;;
18435;SDS011;9346;52.006;4.720;2022-08-21T08:37:11;5.60;;;1.90;;
18435;SDS011;9346;52.006;4.720;2022-08-21T08:39:38;4.63;;;2.03;;
18435;SDS011;9346;52.006;4.720;2022-08-21T08:42:07;3.30;;;2.43;;
18435;SDS011;9346;52.006;4.720;2022-08-21T08:44:38;4.20;;;1.80;;
18435;SDS011;9346;52.006;4.720;2022-08-21T08:47:06;4.00;;;2.03;;
18435;SDS011;9346;52.006;4.720;2022-08-21T08:49:36;4.70;;;2.20;;
18435;SDS011;9346;52.006;4.720;2022-08-21T08:52:17;7.60;;;1.93;;
18435;SDS011;9346;52.006;4.720;2022-08-21T08:54:50;4.03;;;2.07;;
18435;SDS011;9346;52.006;4.720;2022-08-21T08:57:23;4.00;;;1.30;;
18435;SDS011;9346;52.006;4.720;2022-08-21T08:59:52;4.37;;;1.70;;
18435;SDS011;9346;52.006;4.720;2022-08-21T09:02:22;3.80;;;1.80;;
18435;SDS011;9346;52.006;4.720;2022-08-21T09:04:50;3.33;;;1.40;;
18435;SDS011;9346;52.006;4.720;2022-08-21T09:07:23;2.83;;;1.57;;
18435;SDS011;9346;52.006;4.720;2022-08-21T09:10:03;7.33;;;1.63;;
18435;SDS011;9346;52.006;4.720;2022-08-21T09:12:39;6.53;;;1.83;;
18435;SDS011;9346;52.006;4.720;2022-08-21T09:15:18;1.97;;;1.17;;
18435;SDS011;9346;52.006;4.720;2022-08-21T09:17:56;1.60;;;1.23;;
18435;SDS011;9346;52.006;4.720;2022-08-21T09:20:37;3.63;;;1.80;;
18435;SDS011;9346;52.006;4.720;2022-08-21T09:23:11;2.97;;;1.50;;
18435;SDS011;9346;52.006;4.720;2022-08-21T09:25:46;4.07;;;2.60;;
18435;SDS011;9346;52.006;4.720;2022-08-21T09:28:22;2.13;;;1.10;;
18435;SDS011;9346;52.006;4.720;2022-08-21T09:30:49;1.30;;;1.20;;
18435;SDS011;9346;52.006;4.720;2022-08-21T09:33:21;3.53;;;1.53;;
18435;SDS011;9346;52.006;4.720;2022-08-21T09:35:50;2.63;;;1.10;;
18435;SDS011;9346;52.006;4.720;2022-08-21T09:38:26;2.93;;;1.63;;
18435;SDS011;9346;52.006;4.720;2022-08-21T09:40:57;2.60;;;1.30;;
18435;SDS011;9346;52.006;4.720;2022-08-21T09:43:26;5.33;;;1.77;;
18435;SDS011;9346;52.006;4.720;2022-08-21T09:46:02;1.80;;;1.40;;
18435;SDS011;9346;52.006;4.720;2022-08-21T09:48:43;2.43;;;1.63;;
18435;SDS011;9346;52.006;4.720;2022-08-21T09:51:14;3.07;;;1.20;;
18435;SDS011;9346;52.006;4.720;2022-08-21T09:53:44;1.60;;;1.47;;
18435;SDS011;9346;52.006;4.720;2022-08-21T09:56:19;2.40;;;1.53;;
18435;SDS011;9346;52.006;4.720;2022-08-21T09:59:16;2.90;;;1.40;;
18435;SDS011;9346;52.006;4.720;2022-08-21T10:01:47;4.67;;;1.57;;
18435;SDS011;9346;52.006;4.720;2022-08-21T10:04:19;2.90;;;2.00;;
18435;SDS011;9346;52.006;4.720;2022-08-21T10:06:47;2.10;;;1.63;;
18435;SDS011;9346;52.006;4.720;2022-08-21T10:09:17;2.43;;;1.20;;
18435;SDS011;9346;52.006;4.720;2022-08-21T10:11:49;2.00;;;1.50;;
18435;SDS011;9346;52.006;4.720;2022-08-21T10:14:24;2.87;;;1.30;;
18435;SDS011;9346;52.006;4.720;2022-08-21T10:17:07;2.80;;;1.40;;
18435;SDS011;9346;52.006;4.720;2022-08-21T10:19:43;3.07;;;1.20;;
18435;SDS011;9346;52.006;4.720;2022-08-21T10:22:21;1.63;;;0.83;;
18435;SDS011;9346;52.006;4.720;2022-08-21T10:25:01;1.97;;;0.90;;
18435;SDS011;9346;52.006;4.720;2022-08-21T10:27:36;1.73;;;0.90;;
18435;SDS011;9346;52.006;4.720;2022-08-21T10:30:14;2.87;;;1.57;;
18435;SDS011;9346;52.006;4.720;2022-08-21T10:32:53;3.93;;;1.33;;
18435;SDS011;9346;52.006;4.720;2022-08-21T10:35:42;2.10;;;1.30;;
18435;SDS011;9346;52.006;4.720;2022-08-21T10:38:25;2.40;;;1.20;;
18435;SDS011;9346;52.006;4.720;2022-08-21T10:41:24;2.47;;;1.13;;
18435;SDS011;9346;52.006;4.720;2022-08-21T10:44:05;3.07;;;1.27;;
18435;SDS011;9346;52.006;4.720;2022-08-21T10:46:42;4.17;;;1.67;;
18435;SDS011;9346;52.006;4.720;2022-08-21T10:49:21;1.87;;;1.23;;
18435;SDS011;9346;52.006;4.720;2022-08-21T10:51:56;4.70;;;1.30;;
18435;SDS011;9346;52.006;4.720;2022-08-21T10:54:36;2.20;;;1.30;;
18435;SDS011;9346;52.006;4.720;2022-08-21T10:57:12;8.83;;;2.03;;
18435;SDS011;9346;52.006;4.720;2022-08-21T10:59:47;3.63;;;1.57;;
18435;SDS011;9346;52.006;4.720;2022-08-21T11:02:22;2.50;;;1.43;;
18435;SDS011;9346;52.006;4.720;2022-08-21T11:04:56;1.40;;;1.30;;
18435;SDS011;9346;52.006;4.720;2022-08-21T11:07:27;2.47;;;1.27;;
18435;SDS011;9346;52.006;4.720;2022-08-21T11:10:00;3.23;;;1.17;;
18435;SDS011;9346;52.006;4.720;2022-08-21T11:12:34;2.13;;;1.00;;
18435;SDS011;9346;52.006;4.720;2022-08-21T11:15:10;3.97;;;1.30;;
18435;SDS011;9346;52.006;4.720;2022-08-21T11:17:49;5.70;;;1.47;;
18435;SDS011;9346;52.006;4.720;2022-08-21T11:20:28;1.47;;;0.93;;
18435;SDS011;9346;52.006;4.720;2022-08-21T11:23:01;4.50;;;1.27;;
18435;SDS011;9346;52.006;4.720;2022-08-21T11:25:34;1.70;;;1.20;;
18435;SDS011;9346;52.006;4.720;2022-08-21T11:28:08;7.77;;;1.37;;
18435;SDS011;9346;52.006;4.720;2022-08-21T11:30:41;1.70;;;1.20;;
18435;SDS011;9346;52.006;4.720;2022-08-21T11:33:19;3.77;;;1.30;;
18435;SDS011;9346;52.006;4.720;2022-08-21T11:35:57;4.37;;;1.40;;
18435;SDS011;9346;52.006;4.720;2022-08-21T11:38:34;2.03;;;1.27;;
18435;SDS011;9346;52.006;4.720;2022-08-21T11:41:13;3.50;;;1.47;;
18435;SDS011;9346;52.006;4.720;2022-08-21T11:43:48;5.13;;;1.30;;
18435;SDS011;9346;52.006;4.720;2022-08-21T11:46:25;2.60;;;1.27;;
18435;SDS011;9346;52.006;4.720;2022-08-21T11:49:04;6.10;;;1.03;;
18435;SDS011;9346;52.006;4.720;2022-08-21T11:51:44;3.00;;;1.00;;
18435;SDS011;9346;52.006;4.720;2022-08-21T11:54:20;6.67;;;1.43;;
18435;SDS011;9346;52.006;4.720;2022-08-21T11:56:53;3.67;;;1.10;;
18435;SDS011;9346;52.006;4.720;2022-08-21T11:59:31;1.70;;;0.70;;
18435;SDS011;9346;52.006;4.720;2022-08-21T12:02:02;1.37;;;1.10;;
18435;SDS011;9346;52.006;4.720;2022-08-21T12:04:42;2.37;;;1.47;;
18435;SDS011;9346;52.006;4.720;2022-08-21T12:07:14;2.43;;;1.03;;
18435;SDS011;9346;52.006;4.720;2022-08-21T12:09:51;1.47;;;1.33;;
18435;SDS011;9346;52.006;4.720;2022-08-21T12:12:24;1.00;;;0.83;;
18435;SDS011;9346;52.006;4.720;2022-08-21T12:15:11;2.43;;;1.37;;
18435;SDS011;9346;52.006;4.720;2022-08-21T12:17:52;1.67;;;1.17;;
18435;SDS011;9346;52.006;4.720;2022-08-21T12:23:27;3.47;;;0.90;;
18435;SDS011;9346;52.006;4.720;2022-08-21T12:26:01;1.67;;;1.40;;
18435;SDS011;9346;52.006;4.720;2022-08-21T12:28:36;1.43;;;0.90;;
18435;SDS011;9346;52.006;4.720;2022-08-21T12:31:15;5.30;;;2.10;;
18435;SDS011;9346;52.006;4.720;2022-08-21T12:33:47;4.87;;;1.17;;
18435;SDS011;9346;52.006;4.720;2022-08-21T12:36:19;2.33;;;1.10;;
18435;SDS011;9346;52.006;4.720;2022-08-21T12:38:51;2.20;;;1.10;;
18435;SDS011;9346;52.006;4.720;2022-08-21T12:41:21;1.83;;;0.93;;
18435;SDS011;9346;52.006;4.720;2022-08-21T12:43:53;4.43;;;1.13;;
18435;SDS011;9346;52.006;4.720;2022-08-21T12:46:28;1.83;;;0.80;;
18435;SDS011;9346;52.006;4.720;2022-08-21T12:49:00;2.73;;;1.10;;
18435;SDS011;9346;52.006;4.720;2022-08-21T12:51:31;2.77;;;1.10;;
18435;SDS011;9346;52.006;4.720;2022-08-21T12:54:03;2.97;;;1.00;;
18435;SDS011;9346;52.006;4.720;2022-08-21T12:56:31;3.40;;;1.10;;
18435;SDS011;9346;52.006;4.720;2022-08-21T12:59:01;3.30;;;1.03;;
18435;SDS011;9346;52.006;4.720;2022-08-21T13:01:32;2.17;;;0.80;;
18435;SDS011;9346;52.006;4.720;2022-08-21T13:04:02;1.37;;;1.23;;
18435;SDS011;9346;52.006;4.720;2022-08-21T13:06:37;3.83;;;1.10;;
18435;SDS011;9346;52.006;4.720;2022-08-21T13:09:07;0.73;;;0.70;;
18435;SDS011;9346;52.006;4.720;2022-08-21T13:11:39;1.20;;;1.10;;
18435;SDS011;9346;52.006;4.720;2022-08-21T13:14:10;2.93;;;1.00;;
18435;SDS011;9346;52.006;4.720;2022-08-21T13:16:45;3.03;;;1.03;;
18435;SDS011;9346;52.006;4.720;2022-08-21T13:19:16;2.40;;;0.97;;
18435;SDS011;9346;52.006;4.720;2022-08-21T13:21:44;3.17;;;0.97;;
18435;SDS011;9346;52.006;4.720;2022-08-21T13:24:16;0.90;;;0.80;;
18435;SDS011;9346;52.006;4.720;2022-08-21T13:26:44;1.60;;;0.97;;
18435;SDS011;9346;52.006;4.720;2022-08-21T13:29:12;3.53;;;1.07;;
18435;SDS011;9346;52.006;4.720;2022-08-21T13:31:42;0.67;;;0.67;;
18435;SDS011;9346;52.006;4.720;2022-08-21T13:34:17;2.03;;;0.70;;
18435;SDS011;9346;52.006;4.720;2022-08-21T13:36:45;2.17;;;0.80;;
18435;SDS011;9346;52.006;4.720;2022-08-21T13:39:15;1.97;;;1.20;;
18435;SDS011;9346;52.006;4.720;2022-08-21T13:41:45;0.97;;;0.80;;
18435;SDS011;9346;52.006;4.720;2022-08-21T13:44:15;1.40;;;0.97;;
18435;SDS011;9346;52.006;4.720;2022-08-21T13:46:43;2.10;;;1.13;;
18435;SDS011;9346;52.006;4.720;2022-08-21T13:49:15;2.00;;;0.80;;
18435;SDS011;9346;52.006;4.720;2022-08-21T13:51:43;2.37;;;1.10;;
18435;SDS011;9346;52.006;4.720;2022-08-21T13:54:16;2.23;;;0.73;;
18435;SDS011;9346;52.006;4.720;2022-08-21T13:56:48;1.60;;;0.80;;
18435;SDS011;9346;52.006;4.720;2022-08-21T13:59:23;5.10;;;1.20;;
18435;SDS011;9346;52.006;4.720;2022-08-21T14:01:51;3.73;;;1.07;;
18435;SDS011;9346;52.006;4.720;2022-08-21T14:04:26;2.00;;;1.10;;
18435;SDS011;9346;52.006;4.720;2022-08-21T14:06:59;3.80;;;1.07;;
18435;SDS011;9346;52.006;4.720;2022-08-21T14:09:28;2.83;;;1.17;;
18435;SDS011;9346;52.006;4.720;2022-08-21T14:11:58;4.50;;;0.83;;
18435;SDS011;9346;52.006;4.720;2022-08-21T14:14:27;0.83;;;0.83;;
18435;SDS011;9346;52.006;4.720;2022-08-21T14:16:57;4.77;;;1.10;;
18435;SDS011;9346;52.006;4.720;2022-08-21T14:19:28;1.57;;;0.97;;
18435;SDS011;9346;52.006;4.720;2022-08-21T14:24:49;1.60;;;0.80;;
18435;SDS011;9346;52.006;4.720;2022-08-21T14:27:17;3.80;;;1.03;;
18435;SDS011;9346;52.006;4.720;2022-08-21T14:29:45;3.43;;;1.20;;
18435;SDS011;9346;52.006;4.720;2022-08-21T14:32:13;2.83;;;1.07;;
18435;SDS011;9346;52.006;4.720;2022-08-21T14:34:43;3.43;;;1.13;;
18435;SDS011;9346;52.006;4.720;2022-08-21T14:37:10;1.10;;;0.87;;
18435;SDS011;9346;52.006;4.720;2022-08-21T14:39:37;1.63;;;0.70;;
18435;SDS011;9346;52.006;4.720;2022-08-21T14:42:04;2.30;;;1.03;;
18435;SDS011;9346;52.006;4.720;2022-08-21T14:44:31;1.27;;;0.80;;
18435;SDS011;9346;52.006;4.720;2022-08-21T14:46:58;0.60;;;0.60;;
18435;SDS011;9346;52.006;4.720;2022-08-21T14:49:26;3.13;;;1.27;;
18435;SDS011;9346;52.006;4.720;2022-08-21T14:51:56;2.43;;;0.80;;
18435;SDS011;9346;52.006;4.720;2022-08-21T14:54:24;1.67;;;0.97;;
18435;SDS011;9346;52.006;4.720;2022-08-21T14:56:51;2.50;;;1.00;;
18435;SDS011;9346;52.006;4.720;2022-08-21T14:59:20;1.30;;;1.00;;
18435;SDS011;9346;52.006;4.720;2022-08-21T15:01:48;1.67;;;0.97;;
18435;SDS011;9346;52.006;4.720;2022-08-21T15:04:15;1.53;;;0.93;;
18435;SDS011;9346;52.006;4.720;2022-08-21T15:06:42;0.90;;;0.87;;
18435;SDS011;9346;52.006;4.720;2022-08-21T15:09:11;2.37;;;0.90;;
18435;SDS011;9346;52.006;4.720;2022-08-21T15:11:38;2.40;;;1.10;;
18435;SDS011;9346;52.006;4.720;2022-08-21T15:14:06;2.00;;;1.10;;
18435;SDS011;9346;52.006;4.720;2022-08-21T15:16:35;2.30;;;0.90;;
18435;SDS011;9346;52.006;4.720;2022-08-21T15:19:02;1.20;;;0.87;;
18435;SDS011;9346;52.006;4.720;2022-08-21T15:21:29;2.20;;;1.00;;
18435;SDS011;9346;52.006;4.720;2022-08-21T15:23:56;3.03;;;1.20;;